Rincon, Arizona
Current Conditions -  °F | °C
As of 4:58 AM on Monday 24 Nov 2014 (Local Time) from KDMA Reporting Station
Clear Clear  
Wind Chill: 32°   Ceiling: Unl
Heat Index: 38°   Visibility: 10mi
Dew Point:   Wind: 8mph
Humidity: 22%   Direction: 130°SE
Pressure: 30.15"   Gusts: NA
Location:  32.2086°N, 110.558°W
Report Text: KDMA 241158Z AUTO 13007KT 10SM CLR 03/M17 A3015 RMK AO2 SLP198 T00331168 10119 20027 51003 $
Loading
Personal Weather Stations






























Interactive Weather Map New forecast layout! Learn more

10-Day Weather Forecast

Advertisements
Track Severe Weather on mobile